createdAt,value
2022-08-14T00:00:17.778Z,101115.63
2022-08-14T00:02:53.674Z,101116.59
2022-08-14T00:05:26.386Z,101118.00
2022-08-14T00:07:58.980Z,101105.97
2022-08-14T00:10:51.220Z,101101.47
2022-08-14T00:13:29.175Z,101093.97
2022-08-14T00:16:05.052Z,101092.09
2022-08-14T00:19:18.707Z,101095.41
2022-08-14T00:21:36.821Z,101093.25
2022-08-14T00:24:09.741Z,101083.13
2022-08-14T00:26:42.301Z,101076.91
2022-08-14T00:29:16.313Z,101086.59
2022-08-14T00:31:48.902Z,101084.41
2022-08-14T00:34:37.789Z,101081.78
2022-08-14T00:37:19.982Z,101073.50
2022-08-14T00:39:53.021Z,101065.75
2022-08-14T00:42:55.600Z,101069.97
2022-08-14T00:45:19.308Z,101066.88
2022-08-14T00:47:55.103Z,101065.31
2022-08-14T00:50:32.036Z,101057.50
2022-08-14T00:53:10.490Z,101057.06
2022-08-14T00:55:44.141Z,101059.56
2022-08-14T00:58:32.459Z,101048.63
2022-08-14T01:01:09.167Z,101042.84
2022-08-14T01:03:44.715Z,101041.44
2022-08-14T01:06:19.472Z,101036.31
2022-08-14T01:08:59.203Z,101042.13
2022-08-14T01:11:36.142Z,101037.31
2022-08-14T01:14:25.367Z,101038.88
2022-08-14T01:17:01.121Z,101036.69
2022-08-14T01:19:53.779Z,101038.56
2022-08-14T01:22:29.555Z,101038.75
2022-08-14T01:25:02.429Z,101032.34
2022-08-14T01:27:36.680Z,101031.56
2022-08-14T01:30:36.557Z,101031.44
2022-08-14T01:33:13.433Z,101025.81
2022-08-14T01:36:04.561Z,101023.94
2022-08-14T01:38:44.263Z,101023.63
2022-08-14T01:41:29.968Z,101023.63
2022-08-14T01:44:07.824Z,101024.56
2022-08-14T01:47:05.977Z,101017.06
2022-08-14T01:49:46.044Z,101013.50
2022-08-14T01:52:59.644Z,101009.75
2022-08-14T01:55:32.282Z,101017.88
2022-08-14T01:58:20.046Z,101012.75
2022-08-14T02:00:56.390Z,101002.13
2022-08-14T02:03:31.365Z,101007.09
2022-08-14T02:06:33.054Z,101000.28
2022-08-14T02:08:58.091Z,100998.25
2022-08-14T02:11:34.264Z,100988.09
2022-08-14T02:14:10.149Z,100994.16
2022-08-14T02:16:54.862Z,100985.16
2022-08-14T02:19:31.667Z,100978.75
2022-08-14T02:22:06.318Z,100975.00
2022-08-14T02:24:45.163Z,100982.19
2022-08-14T02:28:24.233Z,100972.81
2022-08-14T02:30:16.435Z,100973.00
2022-08-14T02:32:50.771Z,100970.19
2022-08-14T02:35:26.611Z,100975.66
2022-08-14T02:38:05.863Z,100967.53
2022-08-14T02:40:45.440Z,100962.88
2022-08-14T02:43:22.511Z,100962.97
2022-08-14T02:45:55.577Z,100962.50
2022-08-14T02:49:02.102Z,100960.03
2022-08-14T02:51:24.924Z,100956.91
2022-08-14T02:54:03.853Z,100951.94
2022-08-14T02:57:15.833Z,100946.94
2022-08-14T02:59:34.567Z,100958.47
2022-08-14T03:02:07.526Z,100951.00
2022-08-14T03:05:00.275Z,100946.94
2022-08-14T03:07:33.206Z,100931.38
2022-08-14T03:10:25.712Z,100940.69
2022-08-14T03:13:00.609Z,100944.75
2022-08-14T03:15:38.157Z,100943.66
2022-08-14T03:18:12.375Z,100939.75
2022-08-14T03:20:45.238Z,100933.06
2022-08-14T03:23:20.100Z,100935.69
2022-08-14T03:25:52.955Z,100934.59
2022-08-14T03:28:29.545Z,100942.38
2022-08-14T03:31:13.060Z,100940.03
2022-08-14T03:33:51.831Z,100928.66
2022-08-14T03:37:37.590Z,100931.78
2022-08-14T03:39:22.823Z,100926.97
2022-08-14T03:41:59.898Z,100932.25
2022-08-14T03:45:19.032Z,100927.28
2022-08-14T03:47:46.348Z,100929.59
2022-08-14T03:50:27.525Z,100929.09
2022-08-14T03:53:04.504Z,100931.91
2022-08-14T03:55:38.877Z,100934.69
2022-08-14T03:58:12.959Z,100926.59
2022-08-14T04:00:56.738Z,100926.28
2022-08-14T04:03:30.767Z,100920.03
2022-08-14T04:06:03.922Z,100928.75
2022-08-14T04:08:38.354Z,100934.03
2022-08-14T04:11:15.962Z,100928.25
2022-08-14T04:13:50.899Z,100923.44
2022-08-14T04:16:23.860Z,100915.66
2022-08-14T04:19:00.023Z,100911.88
2022-08-14T04:21:39.702Z,100907.34
2022-08-14T04:24:26.954Z,100917.63
2022-08-14T04:27:00.617Z,100904.09
2022-08-14T04:29:33.359Z,100905.16
2022-08-14T04:33:01.887Z,100902.81
2022-08-14T04:35:07.515Z,100913.72
2022-08-14T04:38:01.015Z,100901.25
2022-08-14T04:40:58.282Z,100902.97
2022-08-14T04:43:39.259Z,100896.72
2022-08-14T04:46:55.687Z,100893.88
2022-08-14T04:49:08.082Z,100886.91
2022-08-14T04:51:55.489Z,100884.09
2022-08-14T04:54:28.951Z,100898.72
2022-08-14T04:57:01.691Z,100891.41
2022-08-14T04:59:35.359Z,100888.75
2022-08-14T05:02:08.536Z,100875.53
2022-08-14T05:04:45.178Z,100878.91
2022-08-14T05:07:54.737Z,100864.78
2022-08-14T05:10:26.282Z,100880.66
2022-08-14T05:13:14.415Z,100873.19
2022-08-14T05:15:48.874Z,100869.16
2022-08-14T05:19:17.170Z,100865.59
2022-08-14T05:21:59.373Z,100869.00
2022-08-14T05:24:17.671Z,100872.41
2022-08-14T05:26:51.882Z,100862.88
2022-08-14T05:29:28.353Z,100858.22
2022-08-14T05:32:06.369Z,100866.63
2022-08-14T05:34:39.189Z,100868.16
2022-08-14T05:37:12.760Z,100862.38
2022-08-14T05:39:50.172Z,100870.31
2022-08-14T05:42:29.413Z,100873.72
2022-08-14T05:45:11.228Z,100865.38
2022-08-14T05:47:46.151Z,100877.81
2022-08-14T05:50:23.632Z,100879.19
2022-08-14T05:52:56.573Z,100867.19
2022-08-14T05:55:30.552Z,100861.13
2022-08-14T05:58:06.913Z,100867.53
2022-08-14T06:00:44.947Z,100869.81
2022-08-14T06:03:19.961Z,100870.59
2022-08-14T06:05:54.877Z,100867.53
2022-08-14T06:08:35.639Z,100867.31
2022-08-14T06:11:20.349Z,100863.44
2022-08-14T06:14:03.673Z,100864.88
2022-08-14T06:16:39.457Z,100880.88
2022-08-14T06:19:14.624Z,100876.84
2022-08-14T06:21:58.490Z,100875.59
2022-08-14T06:24:35.677Z,100878.53
2022-08-14T06:27:10.764Z,100873.13
2022-08-14T06:29:43.701Z,100872.50
2022-08-14T06:32:37.549Z,100875.91
2022-08-14T06:35:13.639Z,100870.97
2022-08-14T06:37:50.138Z,100869.06
2022-08-14T06:40:27.154Z,100868.47
2022-08-14T06:43:08.111Z,100864.00
2022-08-14T06:45:44.185Z,100856.38
2022-08-14T06:48:26.469Z,100862.34
2022-08-14T06:51:00.747Z,100859.84
2022-08-14T06:53:33.541Z,100859.72
2022-08-14T06:56:06.198Z,100859.25
2022-08-14T06:58:40.248Z,100846.50
2022-08-14T07:01:45.421Z,100849.31
2022-08-14T07:04:36.075Z,100849.66
2022-08-14T07:07:08.820Z,100855.28
2022-08-14T07:09:51.143Z,100857.59
2022-08-14T07:12:52.131Z,100854.66
2022-08-14T07:15:19.182Z,100845.97
2022-08-14T07:17:53.991Z,100851.75
2022-08-14T07:20:31.193Z,100848.47
2022-08-14T07:23:09.405Z,100844.72
2022-08-14T07:25:45.597Z,100843.16
2022-08-14T07:28:23.505Z,100847.81
2022-08-14T07:31:04.579Z,100851.25
2022-08-14T07:33:41.721Z,100848.88
2022-08-14T07:36:27.528Z,100853.44
2022-08-14T07:39:13.228Z,100861.19
2022-08-14T07:41:46.125Z,100856.16
2022-08-14T07:44:29.363Z,100853.31
2022-08-14T07:47:07.633Z,100843.94
2022-08-14T07:49:42.091Z,100844.91
2022-08-14T07:52:22.186Z,100840.34
2022-08-14T07:55:04.773Z,100837.13
2022-08-14T07:57:38.416Z,100828.25
2022-08-14T08:00:31.038Z,100833.50
2022-08-14T08:03:10.091Z,100829.75
2022-08-14T08:05:44.007Z,100829.56
2022-08-14T08:08:26.918Z,100830.34
2022-08-14T08:11:03.716Z,100820.44
2022-08-14T08:13:49.106Z,100830.69
2022-08-14T08:16:29.546Z,100832.91
2022-08-14T08:19:12.477Z,100824.44
2022-08-14T08:21:46.889Z,100832.31
2022-08-14T08:24:20.811Z,100826.81
2022-08-14T08:26:53.701Z,100820.34
2022-08-14T08:29:29.042Z,100817.69
2022-08-14T08:32:05.993Z,100810.22
2022-08-14T08:34:48.457Z,100805.84
2022-08-14T08:37:21.821Z,100808.09
2022-08-14T08:40:02.866Z,100802.28
2022-08-14T08:42:38.353Z,100798.88
2022-08-14T08:45:17.389Z,100803.13
2022-08-14T08:47:51.926Z,100802.56
2022-08-14T08:53:05.784Z,100813.59
2022-08-14T08:55:40.596Z,100806.06
2022-08-14T08:58:19.993Z,100803.91
2022-08-14T09:00:56.530Z,100809.09
2022-08-14T09:03:32.299Z,100802.25
2022-08-14T09:06:26.609Z,100802.56
2022-08-14T09:08:59.393Z,100804.25
2022-08-14T09:11:32.003Z,100800.34
2022-08-14T09:14:05.550Z,100802.03
2022-08-14T09:16:38.538Z,100799.19
2022-08-14T09:19:12.701Z,100800.00
2022-08-14T09:21:47.347Z,100794.47
2022-08-14T09:24:29.414Z,100796.44
2022-08-14T09:27:06.865Z,100789.16
2022-08-14T09:29:39.667Z,100791.38
2022-08-14T09:32:59.402Z,100789.28
2022-08-14T09:35:18.134Z,100779.25
2022-08-14T09:38:06.339Z,100780.78
2022-08-14T09:40:59.121Z,100776.69
2022-08-14T09:43:44.426Z,100778.25
2022-08-14T09:46:21.285Z,100777.69
2022-08-14T09:49:02.527Z,100764.97
2022-08-14T09:51:45.042Z,100762.06
2022-08-14T09:54:38.638Z,100763.13
2022-08-14T09:57:13.973Z,100759.69
2022-08-14T09:59:50.377Z,100750.94
2022-08-14T10:02:24.885Z,100755.25
2022-08-14T10:05:02.840Z,100749.47
2022-08-14T10:07:37.790Z,100738.13
2022-08-14T10:10:23.309Z,100736.78
2022-08-14T10:12:58.427Z,100738.94
2022-08-14T10:15:33.218Z,100737.56
2022-08-14T10:18:17.805Z,100730.38
2022-08-14T10:20:58.249Z,100729.94
2022-08-14T10:23:45.391Z,100726.06
2022-08-14T10:26:22.692Z,100723.59
2022-08-14T10:29:20.262Z,100717.72
2022-08-14T10:31:59.171Z,100714.44
2022-08-14T10:34:36.582Z,100715.50
2022-08-14T10:37:14.563Z,100708.25
2022-08-14T10:40:05.880Z,100710.53
2022-08-14T10:42:46.923Z,100701.38
2022-08-14T10:45:21.947Z,100704.22
2022-08-14T10:48:07.711Z,100709.94
2022-08-14T10:50:46.543Z,100704.63
2022-08-14T10:53:37.083Z,100698.19
2022-08-14T10:56:21.385Z,100692.56
2022-08-14T10:59:08.718Z,100701.72
2022-08-14T11:01:43.718Z,100695.06
2022-08-14T11:04:28.556Z,100697.31
2022-08-14T11:07:05.841Z,100689.81
2022-08-14T11:09:41.713Z,100688.25
2022-08-14T11:12:44.134Z,100686.53
2022-08-14T11:15:10.081Z,100685.22
2022-08-14T11:17:45.886Z,100680.75
2022-08-14T11:20:24.017Z,100692.69
2022-08-14T11:22:59.109Z,100690.31
2022-08-14T11:25:43.243Z,100691.16
2022-08-14T11:28:19.005Z,100678.97
2022-08-14T11:30:57.415Z,100679.72
2022-08-14T11:33:32.710Z,100683.53
2022-08-14T11:36:18.459Z,100683.28
2022-08-14T11:38:51.595Z,100682.25
2022-08-14T11:41:28.069Z,100679.97
2022-08-14T11:44:01.210Z,100666.06
2022-08-14T11:46:39.427Z,100666.72
2022-08-14T11:49:16.009Z,100655.72
2022-08-14T11:51:54.647Z,100658.88
2022-08-14T11:54:34.971Z,100654.53
2022-08-14T11:57:15.131Z,100645.31
2022-08-14T12:00:02.001Z,100646.22
2022-08-14T12:03:02.747Z,100644.47
2022-08-14T12:05:39.653Z,100646.97
2022-08-14T12:08:13.484Z,100645.31
2022-08-14T12:10:46.639Z,100633.56
2022-08-14T12:13:22.465Z,100633.03
2022-08-14T12:16:06.489Z,100621.09
2022-08-14T12:18:50.862Z,100630.00
2022-08-14T12:21:29.543Z,100616.47
2022-08-14T12:24:08.341Z,100626.22
2022-08-14T12:26:41.703Z,100625.06
2022-08-14T12:29:16.118Z,100616.13
2022-08-14T12:31:59.919Z,100617.63
2022-08-14T12:34:37.010Z,100620.84
2022-08-14T12:37:10.173Z,100615.41
2022-08-14T12:39:44.847Z,100614.59
2022-08-14T12:42:27.337Z,100607.44
2022-08-14T12:45:12.119Z,100603.88
2022-08-14T12:47:51.537Z,100606.88
2022-08-14T12:50:36.017Z,100603.72
2022-08-14T12:53:14.483Z,100609.53
2022-08-14T12:56:21.671Z,100601.13
2022-08-14T12:58:56.619Z,100596.66
2022-08-14T13:02:01.905Z,100598.34
2022-08-14T13:04:25.101Z,100594.94
2022-08-14T13:07:08.575Z,100593.69
2022-08-14T13:09:41.470Z,100589.41
2022-08-14T13:12:34.834Z,100586.13
2022-08-14T13:15:17.852Z,100572.84
2022-08-14T13:17:56.422Z,100576.91
2022-08-14T13:20:33.529Z,100578.09
2022-08-14T13:23:08.967Z,100579.13
2022-08-14T13:25:55.507Z,100574.31
2022-08-14T13:28:32.978Z,100573.53
2022-08-14T13:31:11.323Z,100560.41
2022-08-14T13:33:45.596Z,100559.75
2022-08-14T13:36:24.072Z,100569.28
2022-08-14T13:39:16.110Z,100570.31
2022-08-14T13:41:56.121Z,100567.00
2022-08-14T13:44:32.736Z,100564.88
2022-08-14T13:47:06.924Z,100551.91
2022-08-14T13:49:57.097Z,100556.88
2022-08-14T13:52:51.564Z,100556.88
2022-08-14T13:55:31.034Z,100549.78
2022-08-14T13:58:05.315Z,100541.03
2022-08-14T14:00:52.957Z,100544.25
2022-08-14T14:03:30.267Z,100538.91
2022-08-14T14:06:05.022Z,100536.56
2022-08-14T14:08:47.863Z,100538.69
2022-08-14T14:11:25.496Z,100529.34
2022-08-14T14:14:04.873Z,100530.69
2022-08-14T14:16:37.954Z,100532.19
2022-08-14T14:19:11.301Z,100523.16
2022-08-14T14:21:45.474Z,100525.31
2022-08-14T14:24:19.910Z,100521.75
2022-08-14T14:26:56.015Z,100517.16
2022-08-14T14:29:50.508Z,100509.16
2022-08-14T14:32:31.266Z,100513.13
2022-08-14T14:35:05.566Z,100502.47
2022-08-14T14:37:40.611Z,100505.53
2022-08-14T14:40:53.699Z,100512.53
2022-08-14T14:43:13.220Z,100493.66
2022-08-14T14:45:50.526Z,100499.59
2022-08-14T14:48:31.440Z,100494.84
2022-08-14T14:51:05.481Z,100491.56
2022-08-14T14:53:40.202Z,100483.19
2022-08-14T14:56:51.076Z,100488.13
2022-08-14T14:59:07.609Z,100476.09
2022-08-14T15:01:48.841Z,100481.44
2022-08-14T15:04:21.687Z,100478.59
2022-08-14T15:06:54.577Z,100483.56
2022-08-14T15:09:27.557Z,100472.13
2022-08-14T15:12:00.275Z,100475.13
2022-08-14T15:14:56.630Z,100470.97
2022-08-14T15:17:41.162Z,100467.13
2022-08-14T15:20:17.247Z,100473.16
2022-08-14T15:23:11.696Z,100469.88
2022-08-14T15:25:53.127Z,100467.13
2022-08-14T15:28:26.509Z,100465.34
2022-08-14T15:31:01.189Z,100459.88
2022-08-14T15:34:00.992Z,100453.75
2022-08-14T15:36:46.527Z,100460.25
2022-08-14T15:39:19.214Z,100461.00
2022-08-14T15:41:52.383Z,100450.97
2022-08-14T15:44:34.200Z,100448.72
2022-08-14T15:47:11.160Z,100437.44
2022-08-14T15:49:44.538Z,100441.88
2022-08-14T15:52:32.688Z,100443.69
2022-08-14T15:55:13.166Z,100445.69
2022-08-14T15:58:01.769Z,100444.44
2022-08-14T16:00:54.895Z,100438.22
2022-08-14T16:03:35.697Z,100432.41
2022-08-14T16:06:15.487Z,100427.34
2022-08-14T16:08:58.974Z,100425.28
2022-08-14T16:11:33.096Z,100425.50
2022-08-14T16:14:06.940Z,100423.72
2022-08-14T16:16:50.944Z,100422.31
2022-08-14T16:19:32.750Z,100424.44
2022-08-14T16:22:58.639Z,100420.50
2022-08-14T16:25:18.205Z,100422.56
2022-08-14T16:27:52.337Z,100425.16
2022-08-14T16:30:27.866Z,100425.13
2022-08-14T16:33:02.159Z,100427.13
2022-08-14T16:35:43.100Z,100423.81
2022-08-14T16:38:46.339Z,100419.09
2022-08-14T16:41:26.309Z,100412.53
2022-08-14T16:44:02.405Z,100415.88
2022-08-14T16:46:42.926Z,100415.88
2022-08-14T16:49:17.969Z,100419.50
2022-08-14T16:51:54.130Z,100413.38
2022-08-14T16:54:35.459Z,100412.59
2022-08-14T16:57:22.342Z,100409.66
2022-08-14T16:59:59.250Z,100405.16
2022-08-14T17:02:44.961Z,100400.19
2022-08-14T17:05:20.677Z,100406.53
2022-08-14T17:08:32.737Z,100400.44
2022-08-14T17:11:10.237Z,100396.66
2022-08-14T17:13:58.754Z,100394.34
2022-08-14T17:16:37.359Z,100384.19
2022-08-14T17:19:14.034Z,100392.69
2022-08-14T17:21:50.514Z,100381.81
2022-08-14T17:24:56.400Z,100386.44
2022-08-14T17:27:23.183Z,100381.91
2022-08-14T17:29:57.868Z,100380.38
2022-08-14T17:32:56.010Z,100381.50
2022-08-14T17:35:57.566Z,100383.06
2022-08-14T17:38:39.412Z,100378.44
2022-08-14T17:41:32.678Z,100387.75
2022-08-14T17:44:21.832Z,100381.28
2022-08-14T17:46:58.572Z,100376.00
2022-08-14T17:49:40.508Z,100377.47
2022-08-14T17:52:17.636Z,100381.72
2022-08-14T17:55:00.594Z,100383.06
2022-08-14T17:57:40.869Z,100377.22
2022-08-14T18:00:17.435Z,100384.03
2022-08-14T18:02:52.106Z,100387.53
2022-08-14T18:06:09.947Z,100390.25
2022-08-14T18:08:33.654Z,100384.25
2022-08-14T18:11:16.811Z,100384.53
2022-08-14T18:13:52.754Z,100385.72
2022-08-14T18:16:28.036Z,100383.91
2022-08-14T18:19:04.348Z,100384.03
2022-08-14T18:21:42.679Z,100375.06
2022-08-14T18:24:31.785Z,100376.13
2022-08-14T18:27:06.911Z,100383.19
2022-08-14T18:29:55.371Z,100377.59
2022-08-14T18:32:47.252Z,100381.53
2022-08-14T18:35:56.890Z,100387.38
2022-08-14T18:38:45.887Z,100386.84
2022-08-14T18:41:37.455Z,100380.25
2022-08-14T18:44:11.411Z,100380.38
2022-08-14T18:47:23.635Z,100381.09
2022-08-14T18:50:26.911Z,100374.50
2022-08-14T18:53:07.301Z,100380.66
2022-08-14T18:55:53.372Z,100382.34
2022-08-14T18:58:31.492Z,100373.13
2022-08-14T19:01:06.908Z,100375.19
2022-08-14T19:03:50.254Z,100375.16
2022-08-14T19:06:50.105Z,100381.97
2022-08-14T19:09:58.749Z,100383.09
2022-08-14T19:12:57.619Z,100391.06
2022-08-14T19:15:36.002Z,100379.50
2022-08-14T19:18:30.696Z,100386.03
2022-08-14T19:21:27.384Z,100389.69
2022-08-14T19:24:27.354Z,100393.31
2022-08-14T19:27:23.722Z,100390.00
2022-08-14T19:30:23.165Z,100384.69
2022-08-14T19:33:02.615Z,100392.88
2022-08-14T19:35:49.964Z,100392.88
2022-08-14T19:38:51.951Z,100387.91
2022-08-14T19:41:29.540Z,100386.59
2022-08-14T19:44:11.620Z,100390.69
2022-08-14T19:47:01.445Z,100385.81
2022-08-14T19:50:08.442Z,100389.16
2022-08-14T19:52:37.036Z,100383.28
2022-08-14T19:55:17.896Z,100390.03
2022-08-14T19:57:58.147Z,100391.78
2022-08-14T20:00:31.736Z,100384.38
2022-08-14T20:03:10.222Z,100391.09
2022-08-14T20:05:46.245Z,100378.25
2022-08-14T20:09:05.019Z,100380.09
2022-08-14T20:12:00.798Z,100390.16
2022-08-14T20:14:29.383Z,100390.16
2022-08-14T20:17:06.572Z,100379.84
2022-08-14T20:19:41.515Z,100386.00
2022-08-14T20:22:35.678Z,100388.06
2022-08-14T20:25:16.197Z,100384.50
2022-08-14T20:27:58.821Z,100380.91
2022-08-14T20:30:33.514Z,100386.06
2022-08-14T20:33:11.241Z,100387.84
2022-08-14T20:35:49.192Z,100384.78
2022-08-14T20:38:31.458Z,100390.38
2022-08-14T20:41:10.767Z,100378.81
2022-08-14T20:44:06.531Z,100383.91
2022-08-14T20:46:42.402Z,100388.28
2022-08-14T20:49:18.573Z,100387.78
2022-08-14T20:51:59.489Z,100380.34
2022-08-14T20:54:36.258Z,100376.97
2022-08-14T20:57:11.981Z,100382.38
2022-08-14T20:59:53.083Z,100370.53
2022-08-14T21:02:46.497Z,100371.09
2022-08-14T21:05:34.004Z,100376.69
2022-08-14T21:08:22.167Z,100371.06
2022-08-14T21:10:58.784Z,100365.63
2022-08-14T21:14:20.717Z,100368.16
2022-08-14T21:16:34.990Z,100363.91
2022-08-14T21:19:16.310Z,100365.50
2022-08-14T21:21:55.019Z,100360.34
2022-08-14T21:24:40.130Z,100353.94
2022-08-14T21:27:23.027Z,100363.16
2022-08-14T21:29:56.566Z,100352.91
2022-08-14T21:32:47.038Z,100351.09
2022-08-14T21:35:26.027Z,100352.16
2022-08-14T21:37:58.913Z,100354.44
2022-08-14T21:40:42.045Z,100349.31
2022-08-14T21:43:21.175Z,100352.91
2022-08-14T21:45:57.565Z,100355.47
2022-08-14T21:48:34.135Z,100352.91
2022-08-14T21:51:53.362Z,100346.72
2022-08-14T21:54:04.154Z,100343.63
2022-08-14T21:56:56.797Z,100343.38
2022-08-14T21:59:34.159Z,100340.28
2022-08-14T22:02:09.483Z,100347.47
2022-08-14T22:05:03.396Z,100341.31
2022-08-14T22:07:45.738Z,100347.22
2022-08-14T22:10:22.934Z,100344.38
2022-08-14T22:13:00.711Z,100341.78
2022-08-14T22:15:35.478Z,100337.19
2022-08-14T22:18:12.260Z,100343.31
2022-08-14T22:20:56.809Z,100344.28
2022-08-14T22:23:31.126Z,100335.81
2022-08-14T22:26:07.471Z,100349.94
2022-08-14T22:28:44.730Z,100341.47
2022-08-14T22:31:22.298Z,100337.59
2022-08-14T22:33:58.089Z,100334.47
2022-08-14T22:36:50.570Z,100327.59
2022-08-14T22:40:16.774Z,100328.59
2022-08-14T22:42:22.673Z,100323.44
2022-08-14T22:44:56.739Z,100329.59
2022-08-14T22:47:34.614Z,100339.84
2022-08-14T22:50:28.851Z,100334.94
2022-08-14T22:53:05.946Z,100337.50
2022-08-14T22:55:41.472Z,100328.75
2022-08-14T22:58:17.186Z,100330.00
2022-08-14T23:00:50.335Z,100325.38
2022-08-14T23:03:23.818Z,100326.09
2022-08-14T23:05:57.260Z,100328.66
2022-08-14T23:08:57.534Z,100332.50
2022-08-14T23:11:26.195Z,100327.09
2022-08-14T23:14:02.374Z,100324.78
2022-08-14T23:16:37.878Z,100323.00
2022-08-14T23:19:11.631Z,100315.78
2022-08-14T23:21:46.374Z,100316.03
2022-08-14T23:24:27.054Z,100318.28
2022-08-14T23:27:01.802Z,100319.78
2022-08-14T23:29:42.177Z,100322.06
2022-08-14T23:32:18.818Z,100314.88
2022-08-14T23:34:54.371Z,100314.31
2022-08-14T23:37:27.639Z,100316.41
2022-08-14T23:40:02.382Z,100331.53
2022-08-14T23:42:51.159Z,100319.69
2022-08-14T23:45:36.910Z,100312.22
2022-08-14T23:48:12.422Z,100317.88
2022-08-14T23:50:46.356Z,100318.63
2022-08-14T23:53:28.557Z,100304.53
2022-08-14T23:56:17.020Z,100306.03
2022-08-14T23:58:52.803Z,100299.63
